Time,TemperatureF,DewpointF,PressureIn,WindDirection,WindDirectionDegrees,WindSpeedMPH,WindSpeedGustMPH,Humidity,HourlyPrecipIn,Conditions,Clouds,dailyrainin,SoftwareType,DateUTC
2013-04-07 00:02:00,34.6,33.6,29.47,WSW,250,5.0,5.0,96,0.00,,---,0.00,VWS V14.01,2013-04-07 05:02:00,
2013-04-07 00:07:00,34.4,33.4,29.47,WSW,249,6.0,15.0,96,0.00,,---,0.00,VWS V14.01,2013-04-07 05:07:00,
2013-04-07 00:12:00,34.4,33.4,29.48,WSW,252,10.0,15.0,96,0.00,,---,0.00,VWS V14.01,2013-04-07 05:12:00,
2013-04-07 00:17:00,34.4,33.4,29.48,West,267,4.0,15.0,96,0.00,,---,0.00,VWS V14.01,2013-04-07 05:17:00,
2013-04-07 00:22:00,34.4,33.4,29.49,SW,236,5.0,15.0,96,0.00,,---,0.00,VWS V14.01,2013-04-07 05:22:00,
2013-04-07 00:27:00,34.4,33.4,29.49,WNW,282,6.0,15.0,96,0.00,,---,0.00,VWS V14.01,2013-04-07 05:27:00,
2013-04-07 00:32:00,34.4,33.1,29.49,SW,224,5.0,11.0,95,0.00,,---,0.00,VWS V14.01,2013-04-07 05:32:00,
2013-04-07 00:37:00,34.2,32.9,29.50,West,261,6.0,14.0,95,0.00,,---,0.00,VWS V14.01,2013-04-07 05:37:00,
2013-04-07 00:42:00,34.1,32.8,29.50,West,263,12.0,20.0,95,0.00,,---,0.00,VWS V14.01,2013-04-07 05:42:00,
2013-04-07 00:47:00,34.1,32.8,29.50,WSW,257,11.0,20.0,95,0.00,,---,0.00,VWS V14.01,2013-04-07 05:47:00,
2013-04-07 00:52:00,34.0,32.7,29.50,West,259,13.0,20.0,95,0.00,,---,0.00,VWS V14.01,2013-04-07 05:52:00,
2013-04-07 00:57:00,33.9,32.6,29.50,WNW,300,9.0,20.0,95,0.00,,---,0.00,VWS V14.01,2013-04-07 05:57:00,
2013-04-07 01:02:00,33.9,32.4,29.50,West,269,7.0,12.0,94,0.00,,---,0.00,VWS V14.01,2013-04-07 06:02:00,
2013-04-07 01:08:00,33.8,32.3,29.50,WSW,255,9.0,12.0,94,0.00,,---,0.00,VWS V14.01,2013-04-07 06:08:00,
2013-04-07 01:13:00,33.7,32.2,29.50,WSW,257,8.0,12.0,94,0.00,,---,0.00,VWS V14.01,2013-04-07 06:13:00,
2013-04-07 01:18:00,33.7,32.2,29.51,West,279,10.0,12.0,94,0.00,,---,0.00,VWS V14.01,2013-04-07 06:18:00,
2013-04-07 01:24:00,33.5,32.0,29.51,West,279,4.0,12.0,94,0.00,,---,0.00,VWS V14.01,2013-04-07 06:24:00,
2013-04-07 01:29:00,33.5,32.2,29.51,WSW,258,7.0,12.0,95,0.00,,---,0.00,VWS V14.01,2013-04-07 06:29:00,
2013-04-07 01:34:00,33.4,31.9,29.52,WSW,257,5.0,11.0,94,0.00,,---,0.00,VWS V14.01,2013-04-07 06:34:00,
2013-04-07 01:39:00,33.3,31.8,29.52,SSW,202,9.0,11.0,94,0.00,,---,0.00,VWS V14.01,2013-04-07 06:39:00,
2013-04-07 01:45:00,33.3,31.8,29.53,West,271,4.0,16.0,94,0.00,,---,0.00,VWS V14.01,2013-04-07 06:45:00,
2013-04-07 01:50:00,33.3,31.8,29.53,NW,324,6.0,16.0,94,0.00,,---,0.00,VWS V14.01,2013-04-07 06:50:00,
2013-04-07 01:56:00,33.2,31.7,29.53,WSW,237,9.0,16.0,94,0.00,,---,0.00,VWS V14.01,2013-04-07 06:56:00,
2013-04-07 02:01:00,33.2,31.7,29.53,West,275,7.0,8.0,94,0.00,,---,0.00,VWS V14.01,2013-04-07 07:01:00,
2013-04-07 02:06:00,33.2,31.7,29.54,WNW,301,7.0,9.0,94,0.00,,---,0.00,VWS V14.01,2013-04-07 07:06:00,
2013-04-07 02:12:00,33.1,31.6,29.54,WSW,242,5.0,10.0,94,0.00,,---,0.00,VWS V14.01,2013-04-07 07:12:00,
2013-04-07 02:18:00,33.1,31.6,29.54,WSW,245,4.0,10.0,94,0.00,,---,0.00,VWS V14.01,2013-04-07 07:18:00,
2013-04-07 02:24:00,33.1,31.6,29.54,West,273,6.0,12.0,94,0.00,,---,0.00,VWS V14.01,2013-04-07 07:24:00,
2013-04-07 02:30:00,33.1,31.6,29.54,WSW,257,3.0,13.0,94,0.00,,---,0.00,VWS V14.01,2013-04-07 07:30:00,
2013-04-07 02:35:00,33.0,31.2,29.54,WNW,290,4.0,11.0,93,0.00,,---,0.00,VWS V14.01,2013-04-07 07:35:00,
2013-04-07 02:40:00,33.0,31.5,29.54,WNW,298,9.0,11.0,94,0.00,,---,0.00,VWS V14.01,2013-04-07 07:40:00,
2013-04-07 02:45:00,33.0,31.2,29.54,WNW,296,6.0,11.0,93,0.00,,---,0.00,VWS V14.01,2013-04-07 07:45:00,
2013-04-07 02:50:00,33.0,31.2,29.54,West,273,4.0,11.0,93,0.00,,---,0.00,VWS V14.01,2013-04-07 07:50:00,
2013-04-07 02:55:00,33.0,31.2,29.54,West,261,6.0,11.0,93,0.00,,---,0.00,VWS V14.01,2013-04-07 07:55:00,
2013-04-07 03:00:00,33.0,31.2,29.54,WSW,243,3.0,11.0,93,0.00,,---,0.00,VWS V14.01,2013-04-07 08:00:00,
2013-04-07 03:06:00,32.9,31.1,29.55,WSW,252,4.0,7.0,93,0.00,,---,0.00,VWS V14.01,2013-04-07 08:06:00,
2013-04-07 03:11:00,32.9,31.1,29.55,West,276,4.0,9.0,93,0.00,,---,0.00,VWS V14.01,2013-04-07 08:11:00,
2013-04-07 03:16:00,32.9,31.1,29.55,WSW,254,4.0,10.0,93,0.00,,---,0.00,VWS V14.01,2013-04-07 08:16:00,
2013-04-07 03:22:00,32.9,31.1,29.56,WSW,253,1.0,10.0,93,0.00,,---,0.00,VWS V14.01,2013-04-07 08:22:00,
2013-04-07 03:28:00,32.9,31.1,29.56,West,277,6.0,10.0,93,0.00,,---,0.00,VWS V14.01,2013-04-07 08:28:00,
2013-04-07 03:33:00,32.9,31.1,29.56,WSW,240,4.0,11.0,93,0.00,,---,0.00,VWS V14.01,2013-04-07 08:33:00,
2013-04-07 03:39:00,32.9,31.1,29.56,WNW,297,10.0,11.0,93,0.00,,---,0.00,VWS V14.01,2013-04-07 08:39:00,
2013-04-07 03:44:00,32.9,31.1,29.57,WSW,245,9.0,11.0,93,0.00,,---,0.00,VWS V14.01,2013-04-07 08:44:00,
2013-04-07 03:49:00,32.9,31.1,29.57,West,272,4.0,13.0,93,0.00,,---,0.00,VWS V14.01,2013-04-07 08:49:00,
2013-04-07 03:54:00,32.9,31.1,29.57,WSW,249,3.0,13.0,93,0.00,,---,0.00,VWS V14.01,2013-04-07 08:54:00,
2013-04-07 03:59:00,32.9,31.1,29.57,WNW,288,4.0,13.0,93,0.00,,---,0.00,VWS V14.01,2013-04-07 08:59:00,
2013-04-07 04:04:00,32.9,31.1,29.57,West,266,4.0,11.0,93,0.00,,---,0.00,VWS V14.01,2013-04-07 09:04:00,
2013-04-07 04:09:00,32.9,31.1,29.57,WSW,245,5.0,11.0,93,0.00,,---,0.00,VWS V14.01,2013-04-07 09:09:00,
2013-04-07 04:14:00,32.9,31.1,29.57,NW,311,2.0,11.0,93,0.00,,---,0.00,VWS V14.01,2013-04-07 09:14:00,
2013-04-07 04:19:00,32.9,31.1,29.57,West,272,6.0,11.0,93,0.00,,---,0.00,VWS V14.01,2013-04-07 09:19:00,
2013-04-07 04:24:00,32.9,31.1,29.57,WSW,249,4.0,11.0,93,0.00,,---,0.00,VWS V14.01,2013-04-07 09:24:00,
2013-04-07 04:29:00,32.9,31.1,29.57,West,267,3.0,11.0,93,0.00,,---,0.00,VWS V14.01,2013-04-07 09:29:00,
2013-04-07 04:34:00,32.9,31.1,29.58,WSW,255,3.0,12.0,93,0.00,,---,0.00,VWS V14.01,2013-04-07 09:34:00,
2013-04-07 04:39:00,33.0,31.2,29.58,WSW,250,3.0,12.0,93,0.00,,---,0.00,VWS V14.01,2013-04-07 09:39:00,
2013-04-07 04:44:00,33.0,31.2,29.59,West,259,2.0,12.0,93,0.00,,---,0.00,VWS V14.01,2013-04-07 09:44:00,
2013-04-07 04:49:00,33.0,31.2,29.58,West,259,4.0,12.0,93,0.00,,---,0.00,VWS V14.01,2013-04-07 09:49:00,
2013-04-07 04:54:00,33.0,31.2,29.59,WSW,254,2.0,12.0,93,0.00,,---,0.00,VWS V14.01,2013-04-07 09:54:00,
2013-04-07 04:59:00,33.0,31.2,29.59,West,268,5.0,12.0,93,0.00,,---,0.00,VWS V14.01,2013-04-07 09:59:00,
2013-04-07 05:05:00,33.0,31.2,29.59,SW,223,6.0,10.0,93,0.00,,---,0.00,VWS V14.01,2013-04-07 10:05:00,
2013-04-07 05:10:00,33.0,31.2,29.60,SW,234,3.0,11.0,93,0.00,,---,0.00,VWS V14.01,2013-04-07 10:10:00,
2013-04-07 05:15:00,33.0,31.2,29.60,SSW,211,3.0,11.0,93,0.00,,---,0.00,VWS V14.01,2013-04-07 10:15:00,
2013-04-07 05:20:00,33.0,31.5,29.60,SW,228,3.0,13.0,94,0.00,,---,0.00,VWS V14.01,2013-04-07 10:20:00,
2013-04-07 05:25:00,33.0,31.2,29.60,SSW,206,0.0,13.0,93,0.00,,---,0.00,VWS V14.01,2013-04-07 10:25:00,
2013-04-07 05:30:00,33.0,31.5,29.60,West,271,3.0,3.0,94,0.00,,---,0.00,VWS V14.01,2013-04-07 10:30:00,
2013-04-07 05:35:00,33.0,31.5,29.60,West,272,5.0,7.0,94,0.00,,---,0.00,VWS V14.01,2013-04-07 10:35:00,
2013-04-07 05:40:00,33.0,31.5,29.60,West,267,2.0,7.0,94,0.00,,---,0.00,VWS V14.01,2013-04-07 10:40:00,
2013-04-07 05:45:00,33.0,31.5,29.61,West,265,5.0,7.0,94,0.00,,---,0.00,VWS V14.01,2013-04-07 10:45:00,
2013-04-07 05:50:00,33.0,31.5,29.61,West,263,4.0,9.0,94,0.00,,---,0.00,VWS V14.01,2013-04-07 10:50:00,
2013-04-07 05:55:00,33.0,31.5,29.61,West,268,3.0,9.0,94,0.00,,---,0.00,VWS V14.01,2013-04-07 10:55:00,
2013-04-07 06:00:00,33.0,31.5,29.62,West,271,4.0,4.0,94,0.00,,---,0.00,VWS V14.01,2013-04-07 11:00:00,
2013-04-07 06:05:00,33.0,31.5,29.62,West,261,2.0,8.0,94,0.00,,---,0.00,VWS V14.01,2013-04-07 11:05:00,
2013-04-07 06:10:00,33.1,31.6,29.63,WSW,245,6.0,12.0,94,0.00,,---,0.00,VWS V14.01,2013-04-07 11:10:00,
2013-04-07 06:15:00,33.1,31.6,29.63,SW,223,7.0,12.0,94,0.00,,---,0.00,VWS V14.01,2013-04-07 11:15:00,
2013-04-07 06:20:00,33.1,31.6,29.64,WSW,257,3.0,12.0,94,0.00,,---,0.00,VWS V14.01,2013-04-07 11:20:00,
2013-04-07 06:25:00,33.1,31.6,29.64,WSW,249,7.0,12.0,94,0.00,,---,0.00,VWS V14.01,2013-04-07 11:25:00,
2013-04-07 06:30:00,33.2,31.7,29.64,West,279,9.0,12.0,94,0.00,,---,0.00,VWS V14.01,2013-04-07 11:30:00,
2013-04-07 06:35:00,33.2,31.7,29.65,SW,222,3.0,10.0,94,0.00,,---,0.00,VWS V14.01,2013-04-07 11:35:00,
2013-04-07 06:40:00,33.2,31.7,29.65,WSW,238,6.0,10.0,94,0.00,,---,0.00,VWS V14.01,2013-04-07 11:40:00,
2013-04-07 06:45:00,33.2,31.7,29.65,WSW,245,3.0,10.0,94,0.00,,---,0.00,VWS V14.01,2013-04-07 11:45:00,
2013-04-07 06:50:00,33.2,31.7,29.66,SW,236,4.0,10.0,94,0.00,,---,0.00,VWS V14.01,2013-04-07 11:50:00,
2013-04-07 06:55:00,33.2,31.7,29.66,SW,229,3.0,10.0,94,0.00,,---,0.00,VWS V14.01,2013-04-07 11:55:00,
2013-04-07 07:00:00,33.2,31.7,29.66,WSW,245,3.0,9.0,94,0.00,,---,0.00,VWS V14.01,2013-04-07 12:00:00,
2013-04-07 07:05:00,33.2,31.7,29.66,WSW,253,2.0,9.0,94,0.00,,---,0.00,VWS V14.01,2013-04-07 12:05:00,
2013-04-07 07:10:00,33.3,31.8,29.66,SW,235,4.0,9.0,94,0.00,,---,0.00,VWS V14.01,2013-04-07 12:10:00,
2013-04-07 07:15:00,33.3,31.8,29.67,West,270,4.0,10.0,94,0.00,,---,0.00,VWS V14.01,2013-04-07 12:15:00,
2013-04-07 07:20:00,33.3,31.8,29.67,WSW,240,4.0,10.0,94,0.00,,---,0.00,VWS V14.01,2013-04-07 12:20:00,
2013-04-07 07:25:00,33.3,31.8,29.67,WSW,242,4.0,12.0,94,0.00,,---,0.00,VWS V14.01,2013-04-07 12:25:00,
2013-04-07 07:30:00,33.4,31.9,29.67,WSW,246,3.0,4.0,94,0.00,,---,0.00,VWS V14.01,2013-04-07 12:30:00,
2013-04-07 07:35:00,33.4,31.9,29.67,SW,225,3.0,9.0,94,0.00,,---,0.00,VWS V14.01,2013-04-07 12:35:00,
2013-04-07 07:40:00,33.4,31.9,29.68,WSW,244,3.0,10.0,94,0.00,,---,0.00,VWS V14.01,2013-04-07 12:40:00,
2013-04-07 07:45:00,33.5,32.0,29.68,SW,222,3.0,10.0,94,0.00,,---,0.00,VWS V14.01,2013-04-07 12:45:00,
2013-04-07 07:50:00,33.5,32.0,29.68,SW,234,5.0,11.0,94,0.00,,---,0.00,VWS V14.01,2013-04-07 12:50:00,
2013-04-07 07:55:00,33.5,32.0,29.68,SSW,205,3.0,11.0,94,0.00,,---,0.00,VWS V14.01,2013-04-07 12:55:00,
2013-04-07 08:00:00,33.6,32.1,29.69,WSW,239,3.0,4.0,94,0.00,,---,0.00,VWS V14.01,2013-04-07 13:00:00,
2013-04-07 08:05:00,33.6,32.1,29.68,WSW,254,4.0,10.0,94,0.00,,---,0.00,VWS V14.01,2013-04-07 13:05:00,
2013-04-07 08:10:00,33.6,32.1,29.69,West,261,2.0,10.0,94,0.00,,---,0.00,VWS V14.01,2013-04-07 13:10:00,
2013-04-07 08:15:00,33.7,32.2,29.69,SW,220,1.0,10.0,94,0.00,,---,0.00,VWS V14.01,2013-04-07 13:15:00,
2013-04-07 08:20:00,33.8,32.3,29.69,SSW,213,3.0,11.0,94,0.00,,---,0.00,VWS V14.01,2013-04-07 13:20:00,
2013-04-07 08:25:00,33.8,32.3,29.69,SSW,206,3.0,11.0,94,0.00,,---,0.00,VWS V14.01,2013-04-07 13:25:00,
2013-04-07 08:30:00,33.9,32.4,29.69,WSW,253,4.0,9.0,94,0.00,,---,0.00,VWS V14.01,2013-04-07 13:30:00,
2013-04-07 08:35:00,33.9,32.4,29.70,WSW,249,3.0,9.0,94,0.00,,---,0.00,VWS V14.01,2013-04-07 13:35:00,
2013-04-07 08:41:00,34.0,32.5,29.70,WSW,257,3.0,10.0,94,0.00,,---,0.00,VWS V14.01,2013-04-07 13:41:00,
2013-04-07 08:46:00,34.1,32.6,29.70,WSW,248,3.0,10.0,94,0.00,,---,0.00,VWS V14.01,2013-04-07 13:46:00,
2013-04-07 08:51:00,34.2,32.7,29.71,SW,232,3.0,10.0,94,0.00,,---,0.00,VWS V14.01,2013-04-07 13:51:00,
2013-04-07 08:56:00,34.3,32.8,29.71,West,267,4.0,10.0,94,0.00,,---,0.00,VWS V14.01,2013-04-07 13:56:00,
2013-04-07 09:01:00,34.4,32.9,29.70,West,275,5.0,5.0,94,0.00,,---,0.00,VWS V14.01,2013-04-07 14:01:00,
2013-04-07 09:06:00,34.4,32.6,29.71,West,265,3.0,7.0,93,0.00,,---,0.00,VWS V14.01,2013-04-07 14:06:00,
2013-04-07 09:11:00,34.4,32.6,29.71,West,263,4.0,7.0,93,0.00,,---,0.00,VWS V14.01,2013-04-07 14:11:00,
2013-04-07 09:16:00,34.4,32.6,29.71,WSW,253,3.0,7.0,93,0.00,,---,0.00,VWS V14.01,2013-04-07 14:16:00,
2013-04-07 09:21:00,34.5,32.7,29.71,West,271,2.0,7.0,93,0.00,,---,0.00,VWS V14.01,2013-04-07 14:21:00,
2013-04-07 09:26:00,34.6,32.8,29.71,SW,215,2.0,8.0,93,0.00,,---,0.00,VWS V14.01,2013-04-07 14:26:00,
2013-04-07 09:31:00,34.7,32.9,29.72,WSW,242,3.0,9.0,93,0.00,,---,0.00,VWS V14.01,2013-04-07 14:31:00,
2013-04-07 09:36:00,34.8,32.7,29.72,WNW,284,3.0,9.0,92,0.00,,---,0.00,VWS V14.01,2013-04-07 14:36:00,
2013-04-07 09:41:00,35.0,32.9,29.72,WNW,286,3.0,9.0,92,0.00,,---,0.00,VWS V14.01,2013-04-07 14:41:00,
2013-04-07 09:46:00,35.2,33.1,29.72,SW,225,2.0,9.0,92,0.00,,---,0.00,VWS V14.01,2013-04-07 14:46:00,
2013-04-07 09:52:00,35.2,33.1,29.72,West,269,1.0,9.0,92,0.00,,---,0.00,VWS V14.01,2013-04-07 14:52:00,
2013-04-07 09:57:00,35.1,32.7,29.73,WSW,255,2.0,10.0,91,0.00,,---,0.00,VWS V14.01,2013-04-07 14:57:00,
2013-04-07 10:02:00,35.1,33.0,29.73,WSW,257,2.0,10.0,92,0.00,,---,0.00,VWS V14.01,2013-04-07 15:02:00,
2013-04-07 10:07:00,35.1,32.7,29.73,West,272,3.0,10.0,91,0.00,,---,0.00,VWS V14.01,2013-04-07 15:07:00,
2013-04-07 10:12:00,35.3,32.9,29.73,WNW,290,2.0,10.0,91,0.00,,---,0.00,VWS V14.01,2013-04-07 15:12:00,
2013-04-07 10:17:00,35.4,33.0,29.73,WNW,282,5.0,10.0,91,0.00,,---,0.00,VWS V14.01,2013-04-07 15:17:00,
2013-04-07 10:22:00,35.5,32.9,29.74,West,259,3.0,10.0,90,0.00,,---,0.00,VWS V14.01,2013-04-07 15:22:00,
2013-04-07 10:27:00,35.6,33.0,29.74,SW,229,3.0,10.0,90,0.00,,---,0.00,VWS V14.01,2013-04-07 15:27:00,
2013-04-07 10:32:00,35.7,33.1,29.75,WSW,251,1.0,5.0,90,0.00,,---,0.00,VWS V14.01,2013-04-07 15:32:00,
2013-04-07 10:37:00,35.9,33.0,29.75,West,261,3.0,9.0,89,0.00,,---,0.00,VWS V14.01,2013-04-07 15:37:00,
2013-04-07 10:42:00,36.0,32.8,29.75,West,260,4.0,9.0,88,0.00,,---,0.00,VWS V14.01,2013-04-07 15:42:00,
2013-04-07 10:47:00,36.1,32.9,29.76,NW,305,4.0,9.0,88,0.00,,---,0.00,VWS V14.01,2013-04-07 15:47:00,
2013-04-07 10:52:00,36.2,32.7,29.76,WNW,295,3.0,9.0,87,0.00,,---,0.00,VWS V14.01,2013-04-07 15:52:00,
2013-04-07 10:57:00,36.3,32.8,29.76,WSW,237,2.0,10.0,87,0.00,,---,0.00,VWS V14.01,2013-04-07 15:57:00,
2013-04-07 11:02:00,36.4,32.9,29.76,West,267,2.0,5.0,87,0.00,,---,0.00,VWS V14.01,2013-04-07 16:02:00,
2013-04-07 11:07:00,36.4,32.6,29.76,WNW,295,3.0,6.0,86,0.00,,---,0.00,VWS V14.01,2013-04-07 16:07:00,
2013-04-07 11:12:00,36.6,32.5,29.77,West,268,5.0,7.0,85,0.00,,---,0.00,VWS V14.01,2013-04-07 16:12:00,
2013-04-07 11:17:00,36.6,32.5,29.77,WSW,244,0.0,7.0,85,0.00,,---,0.00,VWS V14.01,2013-04-07 16:17:00,
2013-04-07 11:22:00,36.7,32.9,29.77,WSW,243,3.0,7.0,86,0.00,,---,0.00,VWS V14.01,2013-04-07 16:22:00,
2013-04-07 11:27:00,36.8,32.7,29.77,WSW,242,4.0,7.0,85,0.00,,---,0.00,VWS V14.01,2013-04-07 16:27:00,
2013-04-07 11:32:00,36.8,32.7,29.77,West,261,2.0,4.0,85,0.00,,---,0.00,VWS V14.01,2013-04-07 16:32:00,
2013-04-07 11:37:00,36.7,32.9,29.77,WSW,252,3.0,9.0,86,0.00,,---,0.00,VWS V14.01,2013-04-07 16:37:00,
2013-04-07 11:42:00,36.6,32.8,29.78,SSW,211,5.0,9.0,86,0.00,,---,0.00,VWS V14.01,2013-04-07 16:42:00,
2013-04-07 11:47:00,36.5,32.7,29.78,WSW,257,2.0,9.0,86,0.00,,---,0.00,VWS V14.01,2013-04-07 16:47:00,
2013-04-07 11:52:00,36.7,32.9,29.78,WSW,240,2.0,9.0,86,0.00,,---,0.00,VWS V14.01,2013-04-07 16:52:00,
2013-04-07 11:57:00,36.8,33.0,29.78,SW,233,3.0,9.0,86,0.00,,---,0.00,VWS V14.01,2013-04-07 16:57:00,
2013-04-07 12:02:00,37.0,33.2,29.79,WSW,256,3.0,3.0,86,0.00,,---,0.00,VWS V14.01,2013-04-07 17:02:00,
2013-04-07 12:07:00,37.2,33.4,29.78,SW,232,4.0,5.0,86,0.00,,---,0.00,VWS V14.01,2013-04-07 17:07:00,
2013-04-07 12:12:00,37.3,33.2,29.79,WSW,248,3.0,7.0,85,0.00,,---,0.00,VWS V14.01,2013-04-07 17:12:00,
2013-04-07 12:17:00,37.3,33.5,29.78,WSW,240,7.0,9.0,86,0.00,,---,0.00,VWS V14.01,2013-04-07 17:17:00,
2013-04-07 12:22:00,37.2,33.4,29.79,West,273,5.0,9.0,86,0.00,,---,0.00,VWS V14.01,2013-04-07 17:22:00,
2013-04-07 12:27:00,37.3,33.5,29.78,West,277,2.0,9.0,86,0.00,,---,0.00,VWS V14.01,2013-04-07 17:27:00,
2013-04-07 12:32:00,37.2,33.1,29.78,SW,230,1.0,7.0,85,0.00,,---,0.00,VWS V14.01,2013-04-07 17:32:00,
2013-04-07 12:37:00,37.3,33.5,29.78,SW,227,3.0,7.0,86,0.00,,---,0.00,VWS V14.01,2013-04-07 17:37:00,
2013-04-07 12:42:00,37.2,33.1,29.78,SW,232,4.0,10.0,85,0.00,,---,0.00,VWS V14.01,2013-04-07 17:42:00,
2013-04-07 12:47:00,37.4,33.0,29.78,WSW,248,3.0,10.0,84,0.00,,---,0.00,VWS V14.01,2013-04-07 17:47:00,
2013-04-07 12:52:00,37.5,33.4,29.78,WSW,243,3.0,10.0,85,0.00,,---,0.00,VWS V14.01,2013-04-07 17:52:00,
2013-04-07 12:57:00,37.8,33.1,29.78,WSW,246,3.0,10.0,83,0.00,,---,0.00,VWS V14.01,2013-04-07 17:57:00,
2013-04-07 13:02:00,37.8,33.1,29.77,SW,228,0.0,6.0,83,0.00,,---,0.00,VWS V14.01,2013-04-07 18:02:00,
2013-04-07 13:07:00,38.0,33.3,29.78,SW,216,6.0,6.0,83,0.00,,---,0.00,VWS V14.01,2013-04-07 18:07:00,
2013-04-07 13:12:00,38.1,33.1,29.78,SSW,196,2.0,6.0,82,0.00,,---,0.00,VWS V14.01,2013-04-07 18:12:00,
2013-04-07 13:18:00,38.1,33.1,29.78,SW,230,3.0,6.0,82,0.00,,---,0.00,VWS V14.01,2013-04-07 18:18:00,
2013-04-07 13:23:00,38.2,33.2,29.78,SW,234,4.0,6.0,82,0.00,,---,0.00,VWS V14.01,2013-04-07 18:23:00,
2013-04-07 13:28:00,38.4,33.4,29.78,South,171,1.0,9.0,82,0.00,,---,0.00,VWS V14.01,2013-04-07 18:28:00,
2013-04-07 13:33:00,38.9,33.6,29.78,ESE,108,2.0,4.0,81,0.00,,---,0.00,VWS V14.01,2013-04-07 18:33:00,
2013-04-07 13:38:00,39.0,33.7,29.77,South,184,1.0,4.0,81,0.00,,---,0.00,VWS V14.01,2013-04-07 18:38:00,
2013-04-07 13:43:00,39.2,33.6,29.78,SW,217,0.0,4.0,80,0.00,,---,0.00,VWS V14.01,2013-04-07 18:43:00,
2013-04-07 13:48:00,39.6,34.0,29.78,WSW,251,1.0,4.0,80,0.00,,---,0.00,VWS V14.01,2013-04-07 18:48:00,
2013-04-07 13:53:00,40.0,34.0,29.78,SSW,193,3.0,4.0,79,0.00,,---,0.00,VWS V14.01,2013-04-07 18:53:00,
2013-04-07 13:58:00,40.2,33.6,29.77,SSW,193,0.0,4.0,77,0.00,,---,0.00,VWS V14.01,2013-04-07 18:58:00,
2013-04-07 14:03:00,40.5,33.5,29.77,WNW,302,2.0,5.0,76,0.00,,---,0.00,VWS V14.01,2013-04-07 19:03:00,
2013-04-07 14:08:00,40.1,33.2,29.76,NW,304,3.0,6.0,76,0.00,,---,0.00,VWS V14.01,2013-04-07 19:08:00,
2013-04-07 14:13:00,39.9,33.3,29.77,NNW,346,0.0,6.0,77,0.00,,---,0.00,VWS V14.01,2013-04-07 19:13:00,
2013-04-07 14:18:00,40.1,33.2,29.77,South,190,4.0,6.0,76,0.00,,---,0.00,VWS V14.01,2013-04-07 19:18:00,
2013-04-07 14:23:00,40.5,33.5,29.77,SW,221,3.0,6.0,76,0.00,,---,0.00,VWS V14.01,2013-04-07 19:23:00,
2013-04-07 14:28:00,40.9,33.6,29.76,SW,222,1.0,6.0,75,0.00,,---,0.00,VWS V14.01,2013-04-07 19:28:00,
2013-04-07 14:33:00,41.1,33.5,29.76,WNW,295,4.0,6.0,74,0.00,,---,0.00,VWS V14.01,2013-04-07 19:33:00,
2013-04-07 14:38:00,41.3,33.7,29.76,WNW,284,0.0,6.0,74,0.00,,---,0.00,VWS V14.01,2013-04-07 19:38:00,
2013-04-07 14:43:00,41.3,33.3,29.76,WNW,286,0.0,6.0,73,0.00,,---,0.00,VWS V14.01,2013-04-07 19:43:00,
2013-04-07 14:48:00,41.8,34.5,29.75,WNW,288,1.0,6.0,75,0.00,,---,0.00,VWS V14.01,2013-04-07 19:48:00,
2013-04-07 14:53:00,42.2,33.8,29.75,NW,313,3.0,7.0,72,0.00,,---,0.00,VWS V14.01,2013-04-07 19:53:00,
2013-04-07 14:58:00,42.2,33.8,29.75,WNW,298,0.0,7.0,72,0.00,,---,0.00,VWS V14.01,2013-04-07 19:58:00,
2013-04-07 15:03:00,42.6,34.6,29.75,WNW,286,0.0,2.0,73,0.00,,---,0.00,VWS V14.01,2013-04-07 20:03:00,
2013-04-07 15:08:00,42.9,34.2,29.75,NNW,333,1.0,2.0,71,0.00,,---,0.00,VWS V14.01,2013-04-07 20:08:00,
2013-04-07 15:13:00,42.8,34.1,29.75,NNE,17,0.0,2.0,71,0.00,,---,0.00,VWS V14.01,2013-04-07 20:13:00,
2013-04-07 15:18:00,42.5,33.8,29.75,NE,44,0.0,3.0,71,0.00,,---,0.00,VWS V14.01,2013-04-07 20:18:00,
2013-04-07 15:23:00,42.3,33.6,29.75,NE,54,0.0,3.0,71,0.00,,---,0.00,VWS V14.01,2013-04-07 20:23:00,
2013-04-07 15:28:00,42.3,33.6,29.75,ENE,57,0.0,4.0,71,0.00,,---,0.00,VWS V14.01,2013-04-07 20:28:00,
2013-04-07 15:33:00,42.2,33.5,29.75,ENE,59,3.0,6.0,71,0.00,,---,0.00,VWS V14.01,2013-04-07 20:33:00,
2013-04-07 15:38:00,41.9,33.5,29.75,NE,53,3.0,6.0,72,0.00,,---,0.00,VWS V14.01,2013-04-07 20:38:00,
2013-04-07 15:43:00,41.8,33.5,29.74,NNW,345,1.0,6.0,72,0.00,,---,0.00,VWS V14.01,2013-04-07 20:43:00,
2013-04-07 15:48:00,41.8,33.8,29.74,NE,54,2.0,6.0,73,0.00,,---,0.00,VWS V14.01,2013-04-07 20:48:00,
2013-04-07 15:53:00,41.9,33.9,29.74,East,82,5.0,6.0,73,0.00,,---,0.00,VWS V14.01,2013-04-07 20:53:00,
2013-04-07 15:58:00,42.0,34.0,29.73,ENE,59,8.0,8.0,73,0.00,,---,0.00,VWS V14.01,2013-04-07 20:58:00,
2013-04-07 16:03:00,42.3,34.3,29.73,East,86,2.0,7.0,73,0.00,,---,0.00,VWS V14.01,2013-04-07 21:03:00,
2013-04-07 16:08:00,42.8,34.4,29.73,ENE,59,3.0,7.0,72,0.00,,---,0.00,VWS V14.01,2013-04-07 21:08:00,
2013-04-07 16:13:00,42.9,34.2,29.73,ENE,62,7.0,7.0,71,0.00,,---,0.00,VWS V14.01,2013-04-07 21:13:00,
2013-04-07 16:18:00,42.7,34.7,29.73,ENE,77,5.0,7.0,73,0.00,,---,0.00,VWS V14.01,2013-04-07 21:18:00,
2013-04-07 16:23:00,43.1,34.3,29.73,ENE,65,4.0,7.0,71,0.00,,---,0.00,VWS V14.01,2013-04-07 21:23:00,
2013-04-07 16:28:00,43.2,34.8,29.73,East,88,2.0,8.0,72,0.00,,---,0.00,VWS V14.01,2013-04-07 21:28:00,
2013-04-07 16:33:00,43.1,34.0,29.72,NE,53,4.0,9.0,70,0.00,,---,0.00,VWS V14.01,2013-04-07 21:33:00,
2013-04-07 16:38:00,42.8,34.1,29.72,NE,55,5.0,9.0,71,0.00,,---,0.00,VWS V14.01,2013-04-07 21:38:00,
2013-04-07 16:43:00,42.7,34.3,29.72,NE,53,5.0,9.0,72,0.00,,---,0.00,VWS V14.01,2013-04-07 21:43:00,
2013-04-07 16:48:00,42.7,34.3,29.73,ENE,68,6.0,9.0,72,0.00,,---,0.00,VWS V14.01,2013-04-07 21:48:00,
2013-04-07 16:53:00,42.8,34.1,29.73,ENE,63,6.0,9.0,71,0.00,,---,0.00,VWS V14.01,2013-04-07 21:53:00,
2013-04-07 16:58:00,42.8,34.1,29.72,East,92,4.0,9.0,71,0.00,,---,0.00,VWS V14.01,2013-04-07 21:58:00,
2013-04-07 17:03:00,42.8,34.4,29.72,ENE,58,6.0,7.0,72,0.00,,---,0.00,VWS V14.01,2013-04-07 22:03:00,
2013-04-07 17:09:00,43.1,34.7,29.72,East,91,3.0,9.0,72,0.00,,---,0.00,VWS V14.01,2013-04-07 22:09:00,
2013-04-07 17:14:00,43.3,34.5,29.73,ENE,65,7.0,10.0,71,0.00,,---,0.00,VWS V14.01,2013-04-07 22:14:00,
2013-04-07 17:19:00,43.2,34.8,29.72,ENE,63,3.0,10.0,72,0.00,,---,0.00,VWS V14.01,2013-04-07 22:19:00,
2013-04-07 17:24:00,43.4,35.0,29.73,ENE,57,3.0,10.0,72,0.00,,---,0.00,VWS V14.01,2013-04-07 22:24:00,
2013-04-07 17:29:00,43.5,34.7,29.73,ENE,62,6.0,10.0,71,0.00,,---,0.00,VWS V14.01,2013-04-07 22:29:00,
2013-04-07 17:34:00,43.6,35.2,29.73,NE,55,3.0,5.0,72,0.00,,---,0.00,VWS V14.01,2013-04-07 22:34:00,
2013-04-07 17:39:00,43.6,34.8,29.73,ENE,63,3.0,6.0,71,0.00,,---,0.00,VWS V14.01,2013-04-07 22:39:00,
2013-04-07 17:44:00,43.4,35.0,29.73,ENE,64,5.0,7.0,72,0.00,,---,0.00,VWS V14.01,2013-04-07 22:44:00,
2013-04-07 17:49:00,43.3,34.9,29.73,ENE,61,5.0,7.0,72,0.00,,---,0.00,VWS V14.01,2013-04-07 22:49:00,
2013-04-07 17:54:00,43.3,34.9,29.73,ENE,57,4.0,7.0,72,0.00,,---,0.00,VWS V14.01,2013-04-07 22:54:00,
2013-04-07 17:59:00,43.5,35.1,29.73,ENE,60,3.0,7.0,72,0.00,,---,0.00,VWS V14.01,2013-04-07 22:59:00,
2013-04-07 18:04:00,43.5,35.4,29.73,NE,44,8.0,9.0,73,0.00,,---,0.00,VWS V14.01,2013-04-07 23:04:00,
2013-04-07 18:09:00,43.4,35.3,29.73,NE,48,5.0,10.0,73,0.00,,---,0.00,VWS V14.01,2013-04-07 23:09:00,
2013-04-07 18:14:00,43.4,35.3,29.73,ENE,65,6.0,10.0,73,0.00,,---,0.00,VWS V14.01,2013-04-07 23:14:00,
2013-04-07 18:19:00,43.3,35.2,29.73,ENE,60,4.0,10.0,73,0.00,,---,0.00,VWS V14.01,2013-04-07 23:19:00,
2013-04-07 18:24:00,43.2,35.1,29.73,ENE,58,4.0,10.0,73,0.00,,---,0.00,VWS V14.01,2013-04-07 23:24:00,
2013-04-07 18:29:00,43.1,35.0,29.73,ENE,61,5.0,10.0,73,0.00,,---,0.00,VWS V14.01,2013-04-07 23:29:00,
2013-04-07 18:34:00,43.1,35.0,29.73,ENE,58,4.0,6.0,73,0.00,,---,0.00,VWS V14.01,2013-04-07 23:34:00,
2013-04-07 18:39:00,43.1,35.0,29.73,ENE,68,5.0,6.0,73,0.00,,---,0.00,VWS V14.01,2013-04-07 23:39:00,
2013-04-07 18:44:00,42.9,35.2,29.72,NE,51,4.0,9.0,74,0.00,,---,0.00,VWS V14.01,2013-04-07 23:44:00,
2013-04-07 18:49:00,42.3,35.0,29.72,NE,46,5.0,9.0,75,0.00,,---,0.00,VWS V14.01,2013-04-07 23:49:00,
2013-04-07 18:54:00,41.8,34.8,29.73,NE,44,5.0,9.0,76,0.00,,---,0.00,VWS V14.01,2013-04-07 23:54:00,
2013-04-07 18:59:00,41.4,34.7,29.73,ENE,57,5.0,9.0,77,0.00,,---,0.00,VWS V14.01,2013-04-07 23:59:00,
2013-04-07 19:04:00,41.1,34.8,29.73,NE,50,7.0,9.0,78,0.00,,---,0.00,VWS V14.01,2013-04-08 00:04:00,
2013-04-07 19:09:00,40.6,34.6,29.73,North,10,4.0,9.0,79,0.00,,---,0.00,VWS V14.01,2013-04-08 00:09:00,
2013-04-07 19:15:00,40.2,34.2,29.72,ENE,70,4.0,9.0,79,0.00,,---,0.00,VWS V14.01,2013-04-08 00:15:00,
2013-04-07 19:20:00,39.9,34.2,29.72,NE,38,5.0,9.0,80,0.00,,---,0.00,VWS V14.01,2013-04-08 00:20:00,
2013-04-07 19:25:00,39.5,34.2,29.72,NE,41,1.0,9.0,81,0.00,,---,0.00,VWS V14.01,2013-04-08 00:25:00,
2013-04-07 19:30:00,39.3,34.0,29.72,NE,47,4.0,9.0,81,0.00,,---,0.00,VWS V14.01,2013-04-08 00:30:00,
2013-04-07 19:35:00,39.1,34.1,29.72,NNE,31,3.0,6.0,82,0.00,,---,0.00,VWS V14.01,2013-04-08 00:35:00,
2013-04-07 19:40:00,38.9,33.9,29.72,NE,44,5.0,6.0,82,0.00,,---,0.00,VWS V14.01,2013-04-08 00:40:00,
2013-04-07 19:45:00,38.8,34.1,29.72,NE,40,3.0,6.0,83,0.00,,---,0.00,VWS V14.01,2013-04-08 00:45:00,
2013-04-07 19:50:00,38.6,33.9,29.73,NE,49,3.0,6.0,83,0.00,,---,0.00,VWS V14.01,2013-04-08 00:50:00,
2013-04-07 19:55:00,38.4,34.0,29.73,NNE,32,4.0,6.0,84,0.00,,---,0.00,VWS V14.01,2013-04-08 00:55:00,
2013-04-07 20:00:00,38.2,33.8,29.73,NE,44,5.0,6.0,84,0.00,,---,0.00,VWS V14.01,2013-04-08 01:00:00,
2013-04-07 20:05:00,38.0,33.6,29.73,NE,38,4.0,6.0,84,0.00,,---,0.00,VWS V14.01,2013-04-08 01:05:00,
2013-04-07 20:10:00,37.7,33.6,29.73,ENE,63,3.0,6.0,85,0.00,,---,0.00,VWS V14.01,2013-04-08 01:10:00,
2013-04-07 20:15:00,37.5,33.7,29.73,ENE,74,6.0,7.0,86,0.00,,---,0.00,VWS V14.01,2013-04-08 01:15:00,
2013-04-07 20:20:00,37.7,33.6,29.73,ENE,69,5.0,7.0,85,0.00,,---,0.00,VWS V14.01,2013-04-08 01:20:00,
2013-04-07 20:25:00,37.8,33.7,29.72,ENE,65,7.0,7.0,85,0.00,,---,0.00,VWS V14.01,2013-04-08 01:25:00,
2013-04-07 20:30:00,38.2,33.8,29.72,ENE,66,6.0,7.0,84,0.00,,---,0.00,VWS V14.01,2013-04-08 01:30:00,
2013-04-07 20:35:00,38.5,33.8,29.72,ENE,72,5.0,9.0,83,0.00,,---,0.00,VWS V14.01,2013-04-08 01:35:00,
2013-04-07 20:40:00,38.7,33.7,29.72,ENE,60,6.0,9.0,82,0.00,,---,0.00,VWS V14.01,2013-04-08 01:40:00,
2013-04-07 20:45:00,38.7,33.7,29.72,ENE,61,6.0,9.0,82,0.00,,---,0.00,VWS V14.01,2013-04-08 01:45:00,
2013-04-07 20:50:00,38.7,33.7,29.72,ENE,69,6.0,9.0,82,0.00,,---,0.00,VWS V14.01,2013-04-08 01:50:00,
2013-04-07 20:55:00,38.7,33.7,29.72,ENE,59,6.0,9.0,82,0.00,,---,0.00,VWS V14.01,2013-04-08 01:55:00,
2013-04-07 21:00:00,38.6,33.6,29.72,ENE,67,6.0,6.0,82,0.00,,---,0.00,VWS V14.01,2013-04-08 02:00:00,
2013-04-07 21:05:00,38.6,33.6,29.72,ENE,69,5.0,9.0,82,0.00,,---,0.00,VWS V14.01,2013-04-08 02:05:00,
2013-04-07 21:10:00,38.5,33.5,29.72,ENE,63,4.0,9.0,82,0.00,,---,0.00,VWS V14.01,2013-04-08 02:10:00,
2013-04-07 21:15:00,38.5,33.5,29.72,NE,55,7.0,9.0,82,0.00,,---,0.00,VWS V14.01,2013-04-08 02:15:00,
2013-04-07 21:20:00,38.5,33.5,29.72,ENE,69,5.0,10.0,82,0.00,,---,0.00,VWS V14.01,2013-04-08 02:20:00,
2013-04-07 21:25:00,38.5,33.5,29.72,NE,53,5.0,10.0,82,0.00,,---,0.00,VWS V14.01,2013-04-08 02:25:00,
2013-04-07 21:30:00,38.5,33.5,29.72,ENE,61,6.0,10.0,82,0.00,,---,0.00,VWS V14.01,2013-04-08 02:30:00,
2013-04-07 21:35:00,38.4,33.4,29.72,ENE,67,7.0,10.0,82,0.00,,---,0.00,VWS V14.01,2013-04-08 02:35:00,
2013-04-07 21:40:00,38.4,33.4,29.72,ENE,69,8.0,10.0,82,0.00,,---,0.00,VWS V14.01,2013-04-08 02:40:00,
2013-04-07 21:45:00,38.3,33.3,29.72,ENE,65,9.0,10.0,82,0.00,,---,0.00,VWS V14.01,2013-04-08 02:45:00,
2013-04-07 21:50:00,38.1,33.4,29.71,ENE,64,9.0,10.0,83,0.00,,---,0.00,VWS V14.01,2013-04-08 02:50:00,
2013-04-07 21:55:00,37.9,33.2,29.71,ENE,67,7.0,11.0,83,0.00,,---,0.00,VWS V14.01,2013-04-08 02:55:00,
2013-04-07 22:00:00,38.0,33.3,29.71,ENE,63,8.0,10.0,83,0.00,,---,0.00,VWS V14.01,2013-04-08 03:00:00,
2013-04-07 22:06:00,38.2,33.5,29.71,ENE,57,10.0,11.0,83,0.00,,---,0.00,VWS V14.01,2013-04-08 03:06:00,
2013-04-07 22:11:00,38.2,33.5,29.70,ENE,71,5.0,11.0,83,0.00,,---,0.00,VWS V14.01,2013-04-08 03:11:00,
2013-04-07 22:16:00,38.1,33.4,29.70,East,81,5.0,12.0,83,0.00,,---,0.00,VWS V14.01,2013-04-08 03:16:00,
2013-04-07 22:21:00,38.0,33.3,29.70,ENE,67,5.0,12.0,83,0.00,,---,0.00,VWS V14.01,2013-04-08 03:21:00,
2013-04-07 22:26:00,38.0,33.6,29.70,ENE,65,6.0,12.0,84,0.00,,---,0.00,VWS V14.01,2013-04-08 03:26:00,
2013-04-07 22:31:00,37.9,33.5,29.69,NE,55,9.0,13.0,84,0.00,,---,0.00,VWS V14.01,2013-04-08 03:31:00,
2013-04-07 22:36:00,37.9,33.5,29.69,ENE,77,8.0,13.0,84,0.00,,---,0.00,VWS V14.01,2013-04-08 03:36:00,
2013-04-07 22:41:00,37.9,33.5,29.69,ENE,62,9.0,13.0,84,0.00,,---,0.00,VWS V14.01,2013-04-08 03:41:00,
2013-04-07 22:46:00,38.0,33.6,29.69,ENE,63,7.0,13.0,84,0.00,,---,0.00,VWS V14.01,2013-04-08 03:46:00,
2013-04-07 22:51:00,38.0,33.6,29.69,ENE,70,9.0,13.0,84,0.00,,---,0.00,VWS V14.01,2013-04-08 03:51:00,
2013-04-07 22:56:00,38.0,33.6,29.68,ESE,102,5.0,13.0,84,0.00,,---,0.00,VWS V14.01,2013-04-08 03:56:00,
2013-04-07 23:00:00,38.1,33.7,29.69,East,89,6.0,13.0,84,0.00,,---,0.00,VWS V14.01,2013-04-08 04:00:00,
2013-04-07 23:01:00,38.1,33.7,29.69,East,86,3.0,4.0,84,0.00,,---,0.00,VWS V14.01,2013-04-08 04:01:00,
2013-04-07 23:06:00,38.2,33.5,29.69,East,80,1.0,9.0,83,0.00,,---,0.00,VWS V14.01,2013-04-08 04:06:00,
2013-04-07 23:11:00,38.2,33.5,29.69,East,96,4.0,9.0,83,0.00,,---,0.00,VWS V14.01,2013-04-08 04:11:00,
2013-04-07 23:16:00,38.2,33.5,29.69,East,79,3.0,9.0,83,0.00,,---,0.00,VWS V14.01,2013-04-08 04:16:00,
2013-04-07 23:21:00,38.2,33.5,29.69,ENE,69,5.0,9.0,83,0.00,,---,0.00,VWS V14.01,2013-04-08 04:21:00,
2013-04-07 23:26:00,38.2,33.5,29.69,ENE,74,4.0,9.0,83,0.00,,---,0.00,VWS V14.01,2013-04-08 04:26:00,
2013-04-07 23:31:00,38.1,33.4,29.69,ENE,69,4.0,5.0,83,0.00,,---,0.00,VWS V14.01,2013-04-08 04:31:00,
2013-04-07 23:36:00,38.0,33.6,29.69,ENE,71,6.0,7.0,84,0.00,,---,0.00,VWS V14.01,2013-04-08 04:36:00,
2013-04-07 23:42:00,38.0,33.6,29.68,NE,51,6.0,10.0,84,0.00,,---,0.00,VWS V14.01,2013-04-08 04:42:00,
2013-04-07 23:46:00,38.0,33.6,29.68,East,84,3.0,10.0,84,0.00,,---,0.00,VWS V14.01,2013-04-08 04:46:00,
2013-04-07 23:52:00,37.9,33.5,29.68,ENE,63,6.0,10.0,84,0.00,,---,0.00,VWS V14.01,2013-04-08 04:52:00,
2013-04-07 23:57:00,37.9,33.5,29.67,ENE,78,4.0,11.0,84,0.00,,---,0.00,VWS V14.01,2013-04-08 04:57:00,